sensor_id;sensor_type;location;lat;lon;timestamp;P1;durP1;ratioP1;P2;durP2;ratioP2
18125;SDS011;53956;52.442;13.284;2023-06-19T00:02:25;15.07;;;13.52;;
18125;SDS011;53956;52.442;13.284;2023-06-19T00:04:52;14.73;;;12.43;;
18125;SDS011;53956;52.442;13.284;2023-06-19T00:07:20;14.85;;;13.32;;
18125;SDS011;53956;52.442;13.284;2023-06-19T00:09:47;15.18;;;13.07;;
18125;SDS011;53956;52.442;13.284;2023-06-19T00:12:13;15.27;;;13.40;;
18125;SDS011;53956;52.442;13.284;2023-06-19T00:14:40;16.08;;;13.15;;
18125;SDS011;53956;52.442;13.284;2023-06-19T00:17:07;15.18;;;12.90;;
18125;SDS011;53956;52.442;13.284;2023-06-19T00:19:34;13.98;;;12.60;;
18125;SDS011;53956;52.442;13.284;2023-06-19T00:22:01;14.30;;;12.82;;
18125;SDS011;53956;52.442;13.284;2023-06-19T00:24:29;14.70;;;13.30;;
18125;SDS011;53956;52.442;13.284;2023-06-19T00:26:56;14.60;;;13.20;;
18125;SDS011;53956;52.442;13.284;2023-06-19T00:29:27;13.68;;;12.38;;
18125;SDS011;53956;52.442;13.284;2023-06-19T00:31:55;14.02;;;12.63;;
18125;SDS011;53956;52.442;13.284;2023-06-19T00:34:22;13.65;;;12.25;;
18125;SDS011;53956;52.442;13.284;2023-06-19T00:36:49;15.23;;;13.07;;
18125;SDS011;53956;52.442;13.284;2023-06-19T00:39:16;14.30;;;12.90;;
18125;SDS011;53956;52.442;13.284;2023-06-19T00:41:44;14.13;;;12.82;;
18125;SDS011;53956;52.442;13.284;2023-06-19T00:44:13;15.57;;;13.32;;
18125;SDS011;53956;52.442;13.284;2023-06-19T00:46:40;14.27;;;12.88;;
18125;SDS011;53956;52.442;13.284;2023-06-19T00:49:07;14.10;;;12.70;;
18125;SDS011;53956;52.442;13.284;2023-06-19T00:51:34;13.70;;;12.30;;
18125;SDS011;53956;52.442;13.284;2023-06-19T00:54:01;14.40;;;12.90;;
18125;SDS011;53956;52.442;13.284;2023-06-19T00:56:28;14.88;;;13.27;;
18125;SDS011;53956;52.442;13.284;2023-06-19T00:58:58;13.93;;;12.57;;
18125;SDS011;53956;52.442;13.284;2023-06-19T01:01:25;13.77;;;12.45;;
18125;SDS011;53956;52.442;13.284;2023-06-19T01:03:52;14.23;;;12.82;;
18125;SDS011;53956;52.442;13.284;2023-06-19T01:06:20;14.57;;;13.07;;
18125;SDS011;53956;52.442;13.284;2023-06-19T01:08:54;14.75;;;13.25;;
18125;SDS011;53956;52.442;13.284;2023-06-19T01:11:28;14.25;;;12.73;;
18125;SDS011;53956;52.442;13.284;2023-06-19T01:14:02;16.38;;;13.57;;
18125;SDS011;53956;52.442;13.284;2023-06-19T01:16:34;14.98;;;13.25;;
18125;SDS011;53956;52.442;13.284;2023-06-19T01:19:02;16.40;;;13.18;;
18125;SDS011;53956;52.442;13.284;2023-06-19T01:21:32;15.02;;;13.52;;
18125;SDS011;53956;52.442;13.284;2023-06-19T01:24:00;15.13;;;13.57;;
18125;SDS011;53956;52.442;13.284;2023-06-19T01:26:27;15.55;;;13.98;;
18125;SDS011;53956;52.442;13.284;2023-06-19T01:28:54;14.95;;;13.43;;
18125;SDS011;53956;52.442;13.284;2023-06-19T01:31:26;15.50;;;13.90;;
18125;SDS011;53956;52.442;13.284;2023-06-19T01:33:56;14.98;;;13.40;;
18125;SDS011;53956;52.442;13.284;2023-06-19T01:36:24;14.85;;;13.27;;
18125;SDS011;53956;52.442;13.284;2023-06-19T01:38:52;14.45;;;13.00;;
18125;SDS011;53956;52.442;13.284;2023-06-19T01:41:23;14.30;;;12.90;;
18125;SDS011;53956;52.442;13.284;2023-06-19T01:43:52;15.20;;;13.23;;
18125;SDS011;53956;52.442;13.284;2023-06-19T01:46:19;15.55;;;13.85;;
18125;SDS011;53956;52.442;13.284;2023-06-19T01:48:45;15.07;;;13.45;;
18125;SDS011;53956;52.442;13.284;2023-06-19T01:51:12;16.30;;;14.70;;
18125;SDS011;53956;52.442;13.284;2023-06-19T01:53:39;15.35;;;13.75;;
18125;SDS011;53956;52.442;13.284;2023-06-19T01:56:05;15.68;;;14.10;;
18125;SDS011;53956;52.442;13.284;2023-06-19T01:58:34;16.08;;;14.60;;
18125;SDS011;53956;52.442;13.284;2023-06-19T02:01:00;16.35;;;14.65;;
18125;SDS011;53956;52.442;13.284;2023-06-19T02:03:27;15.70;;;14.10;;
18125;SDS011;53956;52.442;13.284;2023-06-19T02:05:54;17.35;;;15.20;;
18125;SDS011;53956;52.442;13.284;2023-06-19T02:08:21;17.70;;;15.60;;
18125;SDS011;53956;52.442;13.284;2023-06-19T02:10:48;16.75;;;15.05;;
18125;SDS011;53956;52.442;13.284;2023-06-19T02:13:14;16.30;;;14.60;;
18125;SDS011;53956;52.442;13.284;2023-06-19T02:15:42;17.77;;;15.98;;
18125;SDS011;53956;52.442;13.284;2023-06-19T02:18:08;17.00;;;15.07;;
18125;SDS011;53956;52.442;13.284;2023-06-19T02:20:35;16.27;;;14.68;;
18125;SDS011;53956;52.442;13.284;2023-06-19T02:23:02;17.15;;;15.45;;
18125;SDS011;53956;52.442;13.284;2023-06-19T02:25:29;17.35;;;15.52;;
18125;SDS011;53956;52.442;13.284;2023-06-19T02:27:55;16.92;;;15.32;;
18125;SDS011;53956;52.442;13.284;2023-06-19T02:30:22;17.88;;;15.63;;
18125;SDS011;53956;52.442;13.284;2023-06-19T02:32:50;17.30;;;15.55;;
18125;SDS011;53956;52.442;13.284;2023-06-19T02:35:18;16.70;;;15.00;;
18125;SDS011;53956;52.442;13.284;2023-06-19T02:37:45;17.33;;;15.40;;
18125;SDS011;53956;52.442;13.284;2023-06-19T02:40:12;17.17;;;15.43;;
18125;SDS011;53956;52.442;13.284;2023-06-19T02:42:39;17.92;;;16.02;;
18125;SDS011;53956;52.442;13.284;2023-06-19T02:45:06;18.08;;;16.20;;
18125;SDS011;53956;52.442;13.284;2023-06-19T02:47:33;17.88;;;16.05;;
18125;SDS011;53956;52.442;13.284;2023-06-19T02:50:03;18.23;;;16.33;;
18125;SDS011;53956;52.442;13.284;2023-06-19T02:52:30;18.38;;;16.65;;
18125;SDS011;53956;52.442;13.284;2023-06-19T02:54:58;17.73;;;15.93;;
18125;SDS011;53956;52.442;13.284;2023-06-19T02:57:24;18.02;;;16.20;;
18125;SDS011;53956;52.442;13.284;2023-06-19T02:59:51;18.95;;;17.05;;
18125;SDS011;53956;52.442;13.284;2023-06-19T03:02:18;18.55;;;16.70;;
18125;SDS011;53956;52.442;13.284;2023-06-19T03:04:44;20.27;;;18.13;;
18125;SDS011;53956;52.442;13.284;2023-06-19T03:07:12;19.25;;;17.25;;
18125;SDS011;53956;52.442;13.284;2023-06-19T03:09:39;18.27;;;16.40;;
18125;SDS011;53956;52.442;13.284;2023-06-19T03:12:07;19.88;;;17.40;;
18125;SDS011;53956;52.442;13.284;2023-06-19T03:14:35;19.00;;;17.08;;
18125;SDS011;53956;52.442;13.284;2023-06-19T03:17:02;19.17;;;16.98;;
18125;SDS011;53956;52.442;13.284;2023-06-19T03:19:30;19.95;;;17.95;;
18125;SDS011;53956;52.442;13.284;2023-06-19T03:21:58;20.15;;;16.77;;
18125;SDS011;53956;52.442;13.284;2023-06-19T03:24:26;18.67;;;16.73;;
18125;SDS011;53956;52.442;13.284;2023-06-19T03:26:56;19.05;;;16.92;;
18125;SDS011;53956;52.442;13.284;2023-06-19T03:29:23;19.67;;;17.77;;
18125;SDS011;53956;52.442;13.284;2023-06-19T03:31:59;19.33;;;17.42;;
18125;SDS011;53956;52.442;13.284;2023-06-19T03:34:30;19.65;;;17.65;;
18125;SDS011;53956;52.442;13.284;2023-06-19T03:36:58;18.98;;;17.05;;
18125;SDS011;53956;52.442;13.284;2023-06-19T03:39:26;20.00;;;17.15;;
18125;SDS011;53956;52.442;13.284;2023-06-19T03:41:58;18.67;;;16.80;;
18125;SDS011;53956;52.442;13.284;2023-06-19T03:44:25;20.02;;;17.88;;
18125;SDS011;53956;52.442;13.284;2023-06-19T03:46:52;20.80;;;18.60;;
18125;SDS011;53956;52.442;13.284;2023-06-19T03:49:19;19.23;;;17.33;;
18125;SDS011;53956;52.442;13.284;2023-06-19T03:51:49;18.63;;;16.67;;
18125;SDS011;53956;52.442;13.284;2023-06-19T03:54:15;18.70;;;16.70;;
18125;SDS011;53956;52.442;13.284;2023-06-19T03:56:44;19.48;;;17.48;;
18125;SDS011;53956;52.442;13.284;2023-06-19T03:59:10;18.55;;;16.55;;
18125;SDS011;53956;52.442;13.284;2023-06-19T04:01:37;18.27;;;16.48;;
18125;SDS011;53956;52.442;13.284;2023-06-19T04:04:04;18.95;;;16.98;;
18125;SDS011;53956;52.442;13.284;2023-06-19T04:06:30;19.52;;;17.55;;
18125;SDS011;53956;52.442;13.284;2023-06-19T04:08:57;19.77;;;17.70;;
18125;SDS011;53956;52.442;13.284;2023-06-19T04:11:23;20.45;;;17.42;;
18125;SDS011;53956;52.442;13.284;2023-06-19T04:13:51;19.05;;;17.15;;
18125;SDS011;53956;52.442;13.284;2023-06-19T04:16:18;18.50;;;16.60;;
18125;SDS011;53956;52.442;13.284;2023-06-19T04:18:45;19.98;;;16.23;;
18125;SDS011;53956;52.442;13.284;2023-06-19T04:21:11;19.75;;;17.67;;
18125;SDS011;53956;52.442;13.284;2023-06-19T04:23:38;19.25;;;17.25;;
18125;SDS011;53956;52.442;13.284;2023-06-19T04:26:04;18.70;;;16.38;;
18125;SDS011;53956;52.442;13.284;2023-06-19T04:28:31;18.30;;;16.40;;
18125;SDS011;53956;52.442;13.284;2023-06-19T04:30:59;20.85;;;17.30;;
18125;SDS011;53956;52.442;13.284;2023-06-19T04:33:26;18.95;;;16.60;;
18125;SDS011;53956;52.442;13.284;2023-06-19T04:35:53;18.67;;;16.88;;
18125;SDS011;53956;52.442;13.284;2023-06-19T04:38:20;20.45;;;17.55;;
18125;SDS011;53956;52.442;13.284;2023-06-19T04:40:48;19.73;;;17.58;;
18125;SDS011;53956;52.442;13.284;2023-06-19T04:43:15;19.13;;;17.13;;
18125;SDS011;53956;52.442;13.284;2023-06-19T04:45:42;18.92;;;16.83;;
18125;SDS011;53956;52.442;13.284;2023-06-19T04:48:10;19.05;;;17.05;;
18125;SDS011;53956;52.442;13.284;2023-06-19T04:50:37;21.98;;;17.60;;
18125;SDS011;53956;52.442;13.284;2023-06-19T04:53:03;18.35;;;16.52;;
18125;SDS011;53956;52.442;13.284;2023-06-19T04:55:31;19.05;;;17.05;;
18125;SDS011;53956;52.442;13.284;2023-06-19T04:57:58;19.83;;;17.73;;
18125;SDS011;53956;52.442;13.284;2023-06-19T05:00:24;19.67;;;17.63;;
18125;SDS011;53956;52.442;13.284;2023-06-19T05:02:51;21.65;;;17.83;;
18125;SDS011;53956;52.442;13.284;2023-06-19T05:05:20;19.38;;;17.38;;
18125;SDS011;53956;52.442;13.284;2023-06-19T05:07:46;20.55;;;17.83;;
18125;SDS011;53956;52.442;13.284;2023-06-19T05:10:13;19.25;;;17.15;;
18125;SDS011;53956;52.442;13.284;2023-06-19T05:12:39;19.27;;;16.88;;
18125;SDS011;53956;52.442;13.284;2023-06-19T05:15:06;18.92;;;16.92;;
18125;SDS011;53956;52.442;13.284;2023-06-19T05:17:34;19.17;;;17.27;;
18125;SDS011;53956;52.442;13.284;2023-06-19T05:20:02;27.00;;;18.63;;
18125;SDS011;53956;52.442;13.284;2023-06-19T05:22:33;27.65;;;17.75;;
18125;SDS011;53956;52.442;13.284;2023-06-19T05:25:00;21.20;;;17.13;;
18125;SDS011;53956;52.442;13.284;2023-06-19T05:27:26;19.08;;;17.08;;
18125;SDS011;53956;52.442;13.284;2023-06-19T05:29:53;19.58;;;17.67;;
18125;SDS011;53956;52.442;13.284;2023-06-19T05:32:19;19.52;;;17.60;;
18125;SDS011;53956;52.442;13.284;2023-06-19T05:34:46;19.73;;;17.73;;
18125;SDS011;53956;52.442;13.284;2023-06-19T05:37:13;19.17;;;17.15;;
18125;SDS011;53956;52.442;13.284;2023-06-19T05:39:40;21.20;;;17.08;;
18125;SDS011;53956;52.442;13.284;2023-06-19T05:42:07;18.77;;;16.80;;
18125;SDS011;53956;52.442;13.284;2023-06-19T05:44:34;20.40;;;18.25;;
18125;SDS011;53956;52.442;13.284;2023-06-19T05:47:00;20.25;;;18.15;;
18125;SDS011;53956;52.442;13.284;2023-06-19T05:49:27;25.27;;;18.50;;
18125;SDS011;53956;52.442;13.284;2023-06-19T05:51:54;20.90;;;18.10;;
18125;SDS011;53956;52.442;13.284;2023-06-19T05:54:23;20.00;;;17.70;;
18125;SDS011;53956;52.442;13.284;2023-06-19T05:56:51;21.10;;;18.73;;
18125;SDS011;53956;52.442;13.284;2023-06-19T05:59:18;21.92;;;18.05;;
18125;SDS011;53956;52.442;13.284;2023-06-19T06:01:45;19.27;;;17.23;;
18125;SDS011;53956;52.442;13.284;2023-06-19T06:04:11;19.85;;;17.73;;
18125;SDS011;53956;52.442;13.284;2023-06-19T06:06:38;19.98;;;17.55;;
18125;SDS011;53956;52.442;13.284;2023-06-19T06:09:05;20.55;;;17.98;;
18125;SDS011;53956;52.442;13.284;2023-06-19T06:11:34;19.60;;;17.52;;
18125;SDS011;53956;52.442;13.284;2023-06-19T06:14:02;20.55;;;17.58;;
18125;SDS011;53956;52.442;13.284;2023-06-19T06:16:29;19.50;;;17.38;;
18125;SDS011;53956;52.442;13.284;2023-06-19T06:18:55;19.70;;;17.70;;
18125;SDS011;53956;52.442;13.284;2023-06-19T06:21:22;19.40;;;17.40;;
18125;SDS011;53956;52.442;13.284;2023-06-19T06:23:49;18.27;;;16.45;;
18125;SDS011;53956;52.442;13.284;2023-06-19T06:26:15;20.92;;;17.48;;
18125;SDS011;53956;52.442;13.284;2023-06-19T06:28:43;20.42;;;16.83;;
18125;SDS011;53956;52.442;13.284;2023-06-19T06:31:11;20.67;;;17.10;;
18125;SDS011;53956;52.442;13.284;2023-06-19T06:33:37;19.45;;;17.00;;
18125;SDS011;53956;52.442;13.284;2023-06-19T06:36:04;19.13;;;16.77;;
18125;SDS011;53956;52.442;13.284;2023-06-19T06:38:30;17.92;;;16.05;;
18125;SDS011;53956;52.442;13.284;2023-06-19T06:40:57;18.23;;;16.23;;
18125;SDS011;53956;52.442;13.284;2023-06-19T06:43:24;20.15;;;18.15;;
18125;SDS011;53956;52.442;13.284;2023-06-19T06:45:51;19.35;;;16.27;;
18125;SDS011;53956;52.442;13.284;2023-06-19T06:48:19;20.60;;;16.90;;
18125;SDS011;53956;52.442;13.284;2023-06-19T06:50:46;20.83;;;18.13;;
18125;SDS011;53956;52.442;13.284;2023-06-19T06:53:12;17.75;;;16.02;;
18125;SDS011;53956;52.442;13.284;2023-06-19T06:55:39;21.88;;;17.90;;
18125;SDS011;53956;52.442;13.284;2023-06-19T06:58:05;20.13;;;17.33;;
18125;SDS011;53956;52.442;13.284;2023-06-19T07:00:32;19.25;;;17.25;;
18125;SDS011;53956;52.442;13.284;2023-06-19T07:02:59;18.90;;;16.95;;
18125;SDS011;53956;52.442;13.284;2023-06-19T07:05:26;18.77;;;16.45;;
18125;SDS011;53956;52.442;13.284;2023-06-19T07:07:54;21.67;;;17.50;;
18125;SDS011;53956;52.442;13.284;2023-06-19T07:10:21;19.77;;;17.35;;
18125;SDS011;53956;52.442;13.284;2023-06-19T07:12:48;19.55;;;16.35;;
18125;SDS011;53956;52.442;13.284;2023-06-19T07:15:16;19.55;;;17.30;;
18125;SDS011;53956;52.442;13.284;2023-06-19T07:17:43;18.58;;;16.27;;
18125;SDS011;53956;52.442;13.284;2023-06-19T07:20:10;19.83;;;17.05;;
18125;SDS011;53956;52.442;13.284;2023-06-19T07:22:38;19.13;;;16.92;;
18125;SDS011;53956;52.442;13.284;2023-06-19T07:25:05;18.00;;;16.20;;
18125;SDS011;53956;52.442;13.284;2023-06-19T07:27:33;21.15;;;16.42;;
18125;SDS011;53956;52.442;13.284;2023-06-19T07:29:59;18.63;;;15.65;;
18125;SDS011;53956;52.442;13.284;2023-06-19T07:32:26;16.92;;;15.23;;
18125;SDS011;53956;52.442;13.284;2023-06-19T07:34:52;17.42;;;15.63;;
18125;SDS011;53956;52.442;13.284;2023-06-19T07:37:19;16.95;;;15.25;;
18125;SDS011;53956;52.442;13.284;2023-06-19T07:39:48;17.08;;;15.27;;
18125;SDS011;53956;52.442;13.284;2023-06-19T07:42:15;20.08;;;15.60;;
18125;SDS011;53956;52.442;13.284;2023-06-19T07:44:43;16.20;;;14.50;;
18125;SDS011;53956;52.442;13.284;2023-06-19T07:47:10;16.50;;;14.23;;
18125;SDS011;53956;52.442;13.284;2023-06-19T07:49:38;18.17;;;14.68;;
18125;SDS011;53956;52.442;13.284;2023-06-19T07:52:06;15.77;;;14.15;;
18125;SDS011;53956;52.442;13.284;2023-06-19T07:54:34;20.05;;;15.23;;
18125;SDS011;53956;52.442;13.284;2023-06-19T07:57:03;16.48;;;14.13;;
18125;SDS011;53956;52.442;13.284;2023-06-19T07:59:30;16.80;;;13.65;;
18125;SDS011;53956;52.442;13.284;2023-06-19T08:01:57;19.88;;;14.20;;
18125;SDS011;53956;52.442;13.284;2023-06-19T08:04:24;16.38;;;13.48;;
18125;SDS011;53956;52.442;13.284;2023-06-19T08:06:51;17.35;;;13.82;;
18125;SDS011;53956;52.442;13.284;2023-06-19T08:09:17;15.32;;;13.73;;
18125;SDS011;53956;52.442;13.284;2023-06-19T08:11:44;15.05;;;13.55;;
18125;SDS011;53956;52.442;13.284;2023-06-19T08:14:11;15.40;;;13.65;;
18125;SDS011;53956;52.442;13.284;2023-06-19T08:16:38;14.55;;;12.88;;
18125;SDS011;53956;52.442;13.284;2023-06-19T08:19:05;16.40;;;13.63;;
18125;SDS011;53956;52.442;13.284;2023-06-19T08:21:32;15.18;;;13.02;;
18125;SDS011;53956;52.442;13.284;2023-06-19T08:23:58;14.90;;;13.40;;
18125;SDS011;53956;52.442;13.284;2023-06-19T08:26:25;14.65;;;13.05;;
18125;SDS011;53956;52.442;13.284;2023-06-19T08:28:51;14.45;;;12.93;;
18125;SDS011;53956;52.442;13.284;2023-06-19T08:31:19;15.52;;;13.85;;
18125;SDS011;53956;52.442;13.284;2023-06-19T08:33:46;16.50;;;14.50;;
18125;SDS011;53956;52.442;13.284;2023-06-19T08:36:16;15.15;;;13.57;;
18125;SDS011;53956;52.442;13.284;2023-06-19T08:38:43;15.80;;;13.52;;
18125;SDS011;53956;52.442;13.284;2023-06-19T08:41:12;16.25;;;13.88;;
18125;SDS011;53956;52.442;13.284;2023-06-19T08:43:38;16.38;;;13.60;;
18125;SDS011;53956;52.442;13.284;2023-06-19T08:46:10;15.65;;;14.02;;
18125;SDS011;53956;52.442;13.284;2023-06-19T08:48:38;16.55;;;12.93;;
18125;SDS011;53956;52.442;13.284;2023-06-19T08:51:05;18.80;;;14.50;;
18125;SDS011;53956;52.442;13.284;2023-06-19T08:53:32;14.18;;;12.75;;
18125;SDS011;53956;52.442;13.284;2023-06-19T08:56:00;14.43;;;12.57;;
18125;SDS011;53956;52.442;13.284;2023-06-19T08:58:28;14.60;;;12.73;;
18125;SDS011;53956;52.442;13.284;2023-06-19T09:00:56;15.38;;;13.77;;
18125;SDS011;53956;52.442;13.284;2023-06-19T09:03:24;17.70;;;13.95;;
18125;SDS011;53956;52.442;13.284;2023-06-19T09:05:52;15.07;;;13.57;;
18125;SDS011;53956;52.442;13.284;2023-06-19T09:08:19;16.45;;;14.70;;
18125;SDS011;53956;52.442;13.284;2023-06-19T09:10:54;18.23;;;14.18;;
18125;SDS011;53956;52.442;13.284;2023-06-19T09:13:22;16.00;;;14.30;;
18125;SDS011;53956;52.442;13.284;2023-06-19T09:15:56;15.73;;;14.07;;
18125;SDS011;53956;52.442;13.284;2023-06-19T09:18:24;16.55;;;14.38;;
18125;SDS011;53956;52.442;13.284;2023-06-19T09:20:53;16.42;;;14.73;;
18125;SDS011;53956;52.442;13.284;2023-06-19T09:23:20;16.95;;;15.20;;
18125;SDS011;53956;52.442;13.284;2023-06-19T09:25:50;15.82;;;14.30;;
18125;SDS011;53956;52.442;13.284;2023-06-19T09:28:18;16.17;;;14.48;;
18125;SDS011;53956;52.442;13.284;2023-06-19T09:30:55;18.60;;;15.50;;
18125;SDS011;53956;52.442;13.284;2023-06-19T09:33:22;16.45;;;14.80;;
18125;SDS011;53956;52.442;13.284;2023-06-19T09:35:51;20.27;;;15.13;;
18125;SDS011;53956;52.442;13.284;2023-06-19T09:38:20;17.85;;;15.80;;
18125;SDS011;53956;52.442;13.284;2023-06-19T09:40:49;16.48;;;14.68;;
18125;SDS011;53956;52.442;13.284;2023-06-19T09:43:18;19.05;;;17.15;;
18125;SDS011;53956;52.442;13.284;2023-06-19T09:45:48;19.00;;;17.05;;
18125;SDS011;53956;52.442;13.284;2023-06-19T09:48:18;19.17;;;17.08;;
18125;SDS011;53956;52.442;13.284;2023-06-19T09:50:51;20.55;;;16.77;;
18125;SDS011;53956;52.442;13.284;2023-06-19T09:53:21;19.10;;;17.20;;
18125;SDS011;53956;52.442;13.284;2023-06-19T09:55:49;18.48;;;16.52;;
18125;SDS011;53956;52.442;13.284;2023-06-19T09:58:17;19.50;;;16.70;;
18125;SDS011;53956;52.442;13.284;2023-06-19T10:00:44;19.98;;;17.38;;
18125;SDS011;53956;52.442;13.284;2023-06-19T10:03:12;20.60;;;17.45;;
18125;SDS011;53956;52.442;13.284;2023-06-19T10:05:39;18.35;;;16.45;;
18125;SDS011;53956;52.442;13.284;2023-06-19T10:08:06;21.02;;;17.88;;
18125;SDS011;53956;52.442;13.284;2023-06-19T10:10:34;19.27;;;17.33;;
18125;SDS011;53956;52.442;13.284;2023-06-19T10:13:11;19.23;;;17.33;;
18125;SDS011;53956;52.442;13.284;2023-06-19T10:15:40;19.52;;;17.58;;
18125;SDS011;53956;52.442;13.284;2023-06-19T10:18:08;19.10;;;16.73;;
18125;SDS011;53956;52.442;13.284;2023-06-19T10:20:41;18.38;;;16.48;;
18125;SDS011;53956;52.442;13.284;2023-06-19T10:23:10;20.27;;;18.10;;
18125;SDS011;53956;52.442;13.284;2023-06-19T10:25:41;19.50;;;16.33;;
18125;SDS011;53956;52.442;13.284;2023-06-19T10:28:17;19.25;;;17.25;;
18125;SDS011;53956;52.442;13.284;2023-06-19T10:30:51;18.38;;;16.50;;
18125;SDS011;53956;52.442;13.284;2023-06-19T10:33:18;19.50;;;17.42;;
18125;SDS011;53956;52.442;13.284;2023-06-19T10:35:45;18.50;;;16.50;;
18125;SDS011;53956;52.442;13.284;2023-06-19T10:38:14;19.48;;;17.42;;
18125;SDS011;53956;52.442;13.284;2023-06-19T10:40:42;19.63;;;16.85;;
18125;SDS011;53956;52.442;13.284;2023-06-19T10:43:10;18.38;;;16.40;;
18125;SDS011;53956;52.442;13.284;2023-06-19T10:45:36;17.75;;;16.02;;
18125;SDS011;53956;52.442;13.284;2023-06-19T10:48:04;18.45;;;16.17;;
18125;SDS011;53956;52.442;13.284;2023-06-19T10:50:33;19.02;;;15.32;;
18125;SDS011;53956;52.442;13.284;2023-06-19T10:53:01;17.42;;;15.50;;
18125;SDS011;53956;52.442;13.284;2023-06-19T10:55:27;16.98;;;15.07;;
18125;SDS011;53956;52.442;13.284;2023-06-19T10:57:56;17.67;;;15.25;;
18125;SDS011;53956;52.442;13.284;2023-06-19T11:00:23;16.30;;;14.60;;
18125;SDS011;53956;52.442;13.284;2023-06-19T11:02:51;17.20;;;15.40;;
18125;SDS011;53956;52.442;13.284;2023-06-19T11:05:19;15.90;;;14.18;;
18125;SDS011;53956;52.442;13.284;2023-06-19T11:07:50;16.42;;;14.50;;
18125;SDS011;53956;52.442;13.284;2023-06-19T11:10:18;20.08;;;14.63;;
18125;SDS011;53956;52.442;13.284;2023-06-19T11:12:46;18.40;;;14.55;;
18125;SDS011;53956;52.442;13.284;2023-06-19T11:15:14;16.17;;;14.38;;
18125;SDS011;53956;52.442;13.284;2023-06-19T11:17:41;15.82;;;14.23;;
18125;SDS011;53956;52.442;13.284;2023-06-19T11:20:09;15.30;;;13.70;;
18125;SDS011;53956;52.442;13.284;2023-06-19T11:22:37;19.20;;;14.30;;
18125;SDS011;53956;52.442;13.284;2023-06-19T11:25:06;15.15;;;13.50;;
18125;SDS011;53956;52.442;13.284;2023-06-19T11:27:33;15.60;;;13.90;;
18125;SDS011;53956;52.442;13.284;2023-06-19T11:30:03;16.58;;;13.68;;
18125;SDS011;53956;52.442;13.284;2023-06-19T11:32:34;14.88;;;12.98;;
18125;SDS011;53956;52.442;13.284;2023-06-19T11:35:07;14.75;;;13.07;;
18125;SDS011;53956;52.442;13.284;2023-06-19T11:37:36;15.93;;;13.25;;
18125;SDS011;53956;52.442;13.284;2023-06-19T11:40:03;17.92;;;14.20;;
18125;SDS011;53956;52.442;13.284;2023-06-19T11:42:44;17.00;;;13.98;;
18125;SDS011;53956;52.442;13.284;2023-06-19T11:45:12;15.48;;;13.88;;
18125;SDS011;53956;52.442;13.284;2023-06-19T11:47:40;16.25;;;14.18;;
18125;SDS011;53956;52.442;13.284;2023-06-19T11:50:07;15.00;;;13.50;;
18125;SDS011;53956;52.442;13.284;2023-06-19T11:52:34;16.10;;;14.15;;
18125;SDS011;53956;52.442;13.284;2023-06-19T11:55:00;16.65;;;14.05;;
18125;SDS011;53956;52.442;13.284;2023-06-19T11:57:27;14.82;;;13.23;;
18125;SDS011;53956;52.442;13.284;2023-06-19T11:59:54;16.90;;;13.82;;
18125;SDS011;53956;52.442;13.284;2023-06-19T12:02:20;15.23;;;13.10;;
18125;SDS011;53956;52.442;13.284;2023-06-19T12:04:48;15.02;;;13.43;;
18125;SDS011;53956;52.442;13.284;2023-06-19T12:07:15;14.95;;;13.52;;
18125;SDS011;53956;52.442;13.284;2023-06-19T12:09:42;15.15;;;13.13;;
18125;SDS011;53956;52.442;13.284;2023-06-19T12:12:09;14.10;;;12.60;;
18125;SDS011;53956;52.442;13.284;2023-06-19T12:14:36;14.23;;;12.57;;
18125;SDS011;53956;52.442;13.284;2023-06-19T12:17:04;16.83;;;12.98;;
18125;SDS011;53956;52.442;13.284;2023-06-19T12:19:31;15.05;;;12.05;;
18125;SDS011;53956;52.442;13.284;2023-06-19T12:21:59;14.23;;;11.68;;
18125;SDS011;53956;52.442;13.284;2023-06-19T12:24:26;13.02;;;11.63;;
18125;SDS011;53956;52.442;13.284;2023-06-19T12:26:52;12.75;;;11.43;;
18125;SDS011;53956;52.442;13.284;2023-06-19T12:29:19;12.15;;;10.95;;
18125;SDS011;53956;52.442;13.284;2023-06-19T12:31:46;12.88;;;11.45;;
18125;SDS011;53956;52.442;13.284;2023-06-19T12:34:13;12.55;;;11.23;;
18125;SDS011;53956;52.442;13.284;2023-06-19T12:36:40;12.50;;;11.27;;
18125;SDS011;53956;52.442;13.284;2023-06-19T12:39:08;13.43;;;11.15;;
18125;SDS011;53956;52.442;13.284;2023-06-19T12:41:41;13.35;;;11.25;;
18125;SDS011;53956;52.442;13.284;2023-06-19T12:44:07;14.07;;;12.38;;
18125;SDS011;53956;52.442;13.284;2023-06-19T12:46:34;15.50;;;12.52;;
18125;SDS011;53956;52.442;13.284;2023-06-19T12:49:01;13.88;;;12.38;;
18125;SDS011;53956;52.442;13.284;2023-06-19T12:51:27;14.02;;;12.63;;
18125;SDS011;53956;52.442;13.284;2023-06-19T12:53:54;13.25;;;11.95;;
18125;SDS011;53956;52.442;13.284;2023-06-19T12:56:22;14.73;;;13.23;;
18125;SDS011;53956;52.442;13.284;2023-06-19T12:58:48;14.57;;;12.95;;
18125;SDS011;53956;52.442;13.284;2023-06-19T13:01:15;14.23;;;12.82;;
18125;SDS011;53956;52.442;13.284;2023-06-19T13:03:42;14.23;;;12.88;;
18125;SDS011;53956;52.442;13.284;2023-06-19T13:06:08;15.07;;;13.48;;
18125;SDS011;53956;52.442;13.284;2023-06-19T13:08:35;14.57;;;13.00;;
18125;SDS011;53956;52.442;13.284;2023-06-19T13:11:02;15.15;;;13.15;;
18125;SDS011;53956;52.442;13.284;2023-06-19T13:13:30;15.23;;;13.25;;
18125;SDS011;53956;52.442;13.284;2023-06-19T13:15:56;15.23;;;13.60;;
18125;SDS011;53956;52.442;13.284;2023-06-19T13:18:23;15.43;;;13.82;;
18125;SDS011;53956;52.442;13.284;2023-06-19T13:20:49;16.05;;;13.80;;
18125;SDS011;53956;52.442;13.284;2023-06-19T13:23:16;16.25;;;13.63;;
18125;SDS011;53956;52.442;13.284;2023-06-19T13:25:43;24.48;;;16.23;;
18125;SDS011;53956;52.442;13.284;2023-06-19T13:28:09;19.20;;;14.40;;
18125;SDS011;53956;52.442;13.284;2023-06-19T13:30:37;15.98;;;14.27;;
18125;SDS011;53956;52.442;13.284;2023-06-19T13:33:04;15.25;;;13.75;;
18125;SDS011;53956;52.442;13.284;2023-06-19T13:35:31;16.02;;;14.32;;
18125;SDS011;53956;52.442;13.284;2023-06-19T13:37:58;16.10;;;14.43;;
18125;SDS011;53956;52.442;13.284;2023-06-19T13:40:25;19.92;;;13.85;;
18125;SDS011;53956;52.442;13.284;2023-06-19T13:42:52;16.13;;;14.43;;
18125;SDS011;53956;52.442;13.284;2023-06-19T13:45:19;16.02;;;14.35;;
18125;SDS011;53956;52.442;13.284;2023-06-19T13:47:47;14.85;;;13.38;;
18125;SDS011;53956;52.442;13.284;2023-06-19T13:50:14;15.90;;;13.80;;
18125;SDS011;53956;52.442;13.284;2023-06-19T13:52:43;15.38;;;13.85;;
18125;SDS011;53956;52.442;13.284;2023-06-19T13:55:10;15.77;;;14.18;;
18125;SDS011;53956;52.442;13.284;2023-06-19T13:57:38;15.02;;;13.52;;
18125;SDS011;53956;52.442;13.284;2023-06-19T14:00:05;16.42;;;14.35;;
18125;SDS011;53956;52.442;13.284;2023-06-19T14:02:38;15.77;;;12.98;;
18125;SDS011;53956;52.442;13.284;2023-06-19T14:05:07;15.48;;;13.88;;
18125;SDS011;53956;52.442;13.284;2023-06-19T14:07:34;16.70;;;14.95;;
18125;SDS011;53956;52.442;13.284;2023-06-19T14:10:02;15.38;;;13.45;;
18125;SDS011;53956;52.442;13.284;2023-06-19T14:12:30;14.63;;;13.23;;